sensor_id;sensor_type;location;lat;lon;timestamp;temperature;humidity
52513;DHT22;38422;53.172;6.974;2024-01-27T00:01:22;4.80;99.90
52513;DHT22;38422;53.172;6.974;2024-01-27T00:03:48;4.80;99.90
52513;DHT22;38422;53.172;6.974;2024-01-27T00:06:15;4.80;99.90
52513;DHT22;38422;53.172;6.974;2024-01-27T00:08:41;4.80;99.90
52513;DHT22;38422;53.172;6.974;2024-01-27T00:11:06;4.80;99.90
52513;DHT22;38422;53.172;6.974;2024-01-27T00:13:32;4.80;99.90
52513;DHT22;38422;53.172;6.974;2024-01-27T00:15:58;4.80;99.90
52513;DHT22;38422;53.172;6.974;2024-01-27T00:18:23;4.70;99.90
52513;DHT22;38422;53.172;6.974;2024-01-27T00:20:49;4.70;99.90
52513;DHT22;38422;53.172;6.974;2024-01-27T00:23:15;4.70;99.90
52513;DHT22;38422;53.172;6.974;2024-01-27T00:25:40;4.70;99.90
52513;DHT22;38422;53.172;6.974;2024-01-27T00:28:06;4.70;99.90
52513;DHT22;38422;53.172;6.974;2024-01-27T00:30:32;4.70;99.90
52513;DHT22;38422;53.172;6.974;2024-01-27T00:32:57;4.70;99.90
52513;DHT22;38422;53.172;6.974;2024-01-27T00:35:23;4.70;99.90
52513;DHT22;38422;53.172;6.974;2024-01-27T00:37:49;4.70;99.90
52513;DHT22;38422;53.172;6.974;2024-01-27T00:40:15;4.70;99.90
52513;DHT22;38422;53.172;6.974;2024-01-27T00:42:40;4.70;99.90
52513;DHT22;38422;53.172;6.974;2024-01-27T00:45:06;4.70;99.90
52513;DHT22;38422;53.172;6.974;2024-01-27T00:47:32;4.60;99.90
52513;DHT22;38422;53.172;6.974;2024-01-27T00:49:58;4.60;99.90
52513;DHT22;38422;53.172;6.974;2024-01-27T00:52:23;4.50;99.90
52513;DHT22;38422;53.172;6.974;2024-01-27T00:54:49;4.50;99.90
52513;DHT22;38422;53.172;6.974;2024-01-27T00:57:15;4.50;99.90
52513;DHT22;38422;53.172;6.974;2024-01-27T00:59:41;4.50;99.90
52513;DHT22;38422;53.172;6.974;2024-01-27T01:02:07;4.50;99.90
52513;DHT22;38422;53.172;6.974;2024-01-27T01:04:33;4.50;99.90
52513;DHT22;38422;53.172;6.974;2024-01-27T01:06:59;4.40;99.90
52513;DHT22;38422;53.172;6.974;2024-01-27T01:09:25;4.40;99.90
52513;DHT22;38422;53.172;6.974;2024-01-27T01:11:51;4.50;99.90
52513;DHT22;38422;53.172;6.974;2024-01-27T01:14:17;4.40;99.90
52513;DHT22;38422;53.172;6.974;2024-01-27T01:16:42;4.40;99.90
52513;DHT22;38422;53.172;6.974;2024-01-27T01:19:08;4.50;99.90
52513;DHT22;38422;53.172;6.974;2024-01-27T01:21:34;4.40;99.90
52513;DHT22;38422;53.172;6.974;2024-01-27T01:24:00;4.40;99.90
52513;DHT22;38422;53.172;6.974;2024-01-27T01:26:25;4.40;99.90
52513;DHT22;38422;53.172;6.974;2024-01-27T01:28:51;4.40;99.90
52513;DHT22;38422;53.172;6.974;2024-01-27T01:31:17;4.40;99.90
52513;DHT22;38422;53.172;6.974;2024-01-27T01:33:43;4.30;99.90
52513;DHT22;38422;53.172;6.974;2024-01-27T01:36:09;4.30;99.90
52513;DHT22;38422;53.172;6.974;2024-01-27T01:38:34;4.30;99.90
52513;DHT22;38422;53.172;6.974;2024-01-27T01:41:00;4.30;99.90
52513;DHT22;38422;53.172;6.974;2024-01-27T01:43:26;4.20;99.90
52513;DHT22;38422;53.172;6.974;2024-01-27T01:45:52;4.20;99.90
52513;DHT22;38422;53.172;6.974;2024-01-27T01:48:20;4.30;99.90
52513;DHT22;38422;53.172;6.974;2024-01-27T01:50:46;4.30;99.90
52513;DHT22;38422;53.172;6.974;2024-01-27T01:53:13;4.30;99.90
52513;DHT22;38422;53.172;6.974;2024-01-27T01:55:39;4.30;99.90
52513;DHT22;38422;53.172;6.974;2024-01-27T01:58:05;4.30;99.90
52513;DHT22;38422;53.172;6.974;2024-01-27T02:00:32;4.30;99.90
52513;DHT22;38422;53.172;6.974;2024-01-27T02:02:58;4.30;99.90
52513;DHT22;38422;53.172;6.974;2024-01-27T02:05:24;4.30;99.90
52513;DHT22;38422;53.172;6.974;2024-01-27T02:07:50;4.20;99.90
52513;DHT22;38422;53.172;6.974;2024-01-27T02:10:17;4.20;99.90
52513;DHT22;38422;53.172;6.974;2024-01-27T02:12:44;4.20;99.90
52513;DHT22;38422;53.172;6.974;2024-01-27T02:15:11;4.10;99.90
52513;DHT22;38422;53.172;6.974;2024-01-27T02:17:40;4.10;99.90
52513;DHT22;38422;53.172;6.974;2024-01-27T02:20:07;4.00;99.90
52513;DHT22;38422;53.172;6.974;2024-01-27T02:22:36;4.00;99.90
52513;DHT22;38422;53.172;6.974;2024-01-27T02:25:02;4.00;99.90
52513;DHT22;38422;53.172;6.974;2024-01-27T02:27:29;3.90;99.90
52513;DHT22;38422;53.172;6.974;2024-01-27T02:29:54;3.90;99.90
52513;DHT22;38422;53.172;6.974;2024-01-27T02:32:20;3.90;99.90
52513;DHT22;38422;53.172;6.974;2024-01-27T02:34:46;3.80;99.90
52513;DHT22;38422;53.172;6.974;2024-01-27T02:37:12;3.80;99.90
52513;DHT22;38422;53.172;6.974;2024-01-27T02:39:37;3.80;99.90
52513;DHT22;38422;53.172;6.974;2024-01-27T02:42:06;3.90;99.90
52513;DHT22;38422;53.172;6.974;2024-01-27T02:44:32;3.80;99.90
52513;DHT22;38422;53.172;6.974;2024-01-27T02:46:57;3.80;99.90
52513;DHT22;38422;53.172;6.974;2024-01-27T02:49:23;3.80;99.90
52513;DHT22;38422;53.172;6.974;2024-01-27T02:51:49;3.70;99.90
52513;DHT22;38422;53.172;6.974;2024-01-27T02:54:15;3.70;99.90
52513;DHT22;38422;53.172;6.974;2024-01-27T02:56:40;3.60;99.90
52513;DHT22;38422;53.172;6.974;2024-01-27T02:59:06;3.60;99.90
52513;DHT22;38422;53.172;6.974;2024-01-27T03:01:32;3.50;99.90
52513;DHT22;38422;53.172;6.974;2024-01-27T03:03:57;3.50;99.90
52513;DHT22;38422;53.172;6.974;2024-01-27T03:06:23;3.50;99.90
52513;DHT22;38422;53.172;6.974;2024-01-27T03:08:49;3.60;99.90
52513;DHT22;38422;53.172;6.974;2024-01-27T03:11:14;3.60;99.90
52513;DHT22;38422;53.172;6.974;2024-01-27T03:13:40;3.60;99.90
52513;DHT22;38422;53.172;6.974;2024-01-27T03:16:10;3.60;99.90
52513;DHT22;38422;53.172;6.974;2024-01-27T03:18:36;3.70;99.90
52513;DHT22;38422;53.172;6.974;2024-01-27T03:21:03;3.70;99.90
52513;DHT22;38422;53.172;6.974;2024-01-27T03:23:29;3.70;99.90
52513;DHT22;38422;53.172;6.974;2024-01-27T03:25:54;3.70;99.90
52513;DHT22;38422;53.172;6.974;2024-01-27T03:28:20;3.70;99.90
52513;DHT22;38422;53.172;6.974;2024-01-27T03:30:46;3.70;99.90
52513;DHT22;38422;53.172;6.974;2024-01-27T03:33:12;3.70;99.90
52513;DHT22;38422;53.172;6.974;2024-01-27T03:35:39;3.70;99.90
52513;DHT22;38422;53.172;6.974;2024-01-27T03:38:06;3.70;99.90
52513;DHT22;38422;53.172;6.974;2024-01-27T03:40:31;3.70;99.90
52513;DHT22;38422;53.172;6.974;2024-01-27T03:42:57;3.70;99.90
52513;DHT22;38422;53.172;6.974;2024-01-27T03:45:23;3.70;99.90
52513;DHT22;38422;53.172;6.974;2024-01-27T03:47:48;3.70;99.90
52513;DHT22;38422;53.172;6.974;2024-01-27T03:50:14;3.70;99.90
52513;DHT22;38422;53.172;6.974;2024-01-27T03:52:41;3.70;99.90
52513;DHT22;38422;53.172;6.974;2024-01-27T03:55:07;3.70;99.90
52513;DHT22;38422;53.172;6.974;2024-01-27T03:57:32;3.70;99.90
52513;DHT22;38422;53.172;6.974;2024-01-27T03:59:58;3.60;99.90
52513;DHT22;38422;53.172;6.974;2024-01-27T04:02:24;3.60;99.90
52513;DHT22;38422;53.172;6.974;2024-01-27T04:04:49;3.60;99.90
52513;DHT22;38422;53.172;6.974;2024-01-27T04:07:15;3.60;99.90
52513;DHT22;38422;53.172;6.974;2024-01-27T04:09:41;3.60;99.90
52513;DHT22;38422;53.172;6.974;2024-01-27T04:12:07;3.60;99.90
52513;DHT22;38422;53.172;6.974;2024-01-27T04:14:33;3.60;99.90
52513;DHT22;38422;53.172;6.974;2024-01-27T04:16:58;3.50;99.90
52513;DHT22;38422;53.172;6.974;2024-01-27T04:19:24;3.50;99.90
52513;DHT22;38422;53.172;6.974;2024-01-27T04:21:50;3.50;99.90
52513;DHT22;38422;53.172;6.974;2024-01-27T04:24:15;3.50;99.90
52513;DHT22;38422;53.172;6.974;2024-01-27T04:26:41;3.50;99.90
52513;DHT22;38422;53.172;6.974;2024-01-27T04:29:07;3.50;99.90
52513;DHT22;38422;53.172;6.974;2024-01-27T04:31:33;3.50;99.90
52513;DHT22;38422;53.172;6.974;2024-01-27T04:33:59;3.50;99.90
52513;DHT22;38422;53.172;6.974;2024-01-27T04:36:28;3.50;99.90
52513;DHT22;38422;53.172;6.974;2024-01-27T04:38:55;3.50;99.90
52513;DHT22;38422;53.172;6.974;2024-01-27T04:41:20;3.40;99.90
52513;DHT22;38422;53.172;6.974;2024-01-27T04:43:46;3.40;99.90
52513;DHT22;38422;53.172;6.974;2024-01-27T04:46:12;3.30;99.90
52513;DHT22;38422;53.172;6.974;2024-01-27T04:48:37;3.30;99.90
52513;DHT22;38422;53.172;6.974;2024-01-27T04:51:03;3.30;99.90
52513;DHT22;38422;53.172;6.974;2024-01-27T04:53:29;3.30;99.90
52513;DHT22;38422;53.172;6.974;2024-01-27T04:55:54;3.30;99.90
52513;DHT22;38422;53.172;6.974;2024-01-27T04:58:20;3.30;99.90
52513;DHT22;38422;53.172;6.974;2024-01-27T05:00:46;3.30;99.90
52513;DHT22;38422;53.172;6.974;2024-01-27T05:03:12;3.30;99.90
52513;DHT22;38422;53.172;6.974;2024-01-27T05:05:42;3.30;99.90
52513;DHT22;38422;53.172;6.974;2024-01-27T05:08:09;3.30;99.90
52513;DHT22;38422;53.172;6.974;2024-01-27T05:10:35;3.30;99.90
52513;DHT22;38422;53.172;6.974;2024-01-27T05:13:01;3.30;99.90
52513;DHT22;38422;53.172;6.974;2024-01-27T05:15:27;3.30;99.90
52513;DHT22;38422;53.172;6.974;2024-01-27T05:17:53;3.20;99.90
52513;DHT22;38422;53.172;6.974;2024-01-27T05:20:19;3.20;99.90
52513;DHT22;38422;53.172;6.974;2024-01-27T05:22:45;3.20;99.90
52513;DHT22;38422;53.172;6.974;2024-01-27T05:25:11;3.20;99.90
52513;DHT22;38422;53.172;6.974;2024-01-27T05:27:37;3.20;99.90
52513;DHT22;38422;53.172;6.974;2024-01-27T05:30:05;3.20;99.90
52513;DHT22;38422;53.172;6.974;2024-01-27T05:32:31;3.20;99.90
52513;DHT22;38422;53.172;6.974;2024-01-27T05:34:57;3.20;99.90
52513;DHT22;38422;53.172;6.974;2024-01-27T05:37:22;3.20;99.90
52513;DHT22;38422;53.172;6.974;2024-01-27T05:39:48;3.20;99.90
52513;DHT22;38422;53.172;6.974;2024-01-27T05:42:14;3.20;99.90
52513;DHT22;38422;53.172;6.974;2024-01-27T05:44:40;3.10;99.90
52513;DHT22;38422;53.172;6.974;2024-01-27T05:47:06;3.10;99.90
52513;DHT22;38422;53.172;6.974;2024-01-27T05:49:32;3.10;99.90
52513;DHT22;38422;53.172;6.974;2024-01-27T05:51:58;3.00;99.90
52513;DHT22;38422;53.172;6.974;2024-01-27T05:54:24;3.00;99.90
52513;DHT22;38422;53.172;6.974;2024-01-27T05:56:50;3.00;99.90
52513;DHT22;38422;53.172;6.974;2024-01-27T05:59:16;3.00;99.90
52513;DHT22;38422;53.172;6.974;2024-01-27T06:01:41;3.00;99.90
52513;DHT22;38422;53.172;6.974;2024-01-27T06:04:09;3.00;99.90
52513;DHT22;38422;53.172;6.974;2024-01-27T06:06:38;3.00;99.90
52513;DHT22;38422;53.172;6.974;2024-01-27T06:09:03;3.00;99.90
52513;DHT22;38422;53.172;6.974;2024-01-27T06:11:29;3.00;99.90
52513;DHT22;38422;53.172;6.974;2024-01-27T06:13:55;3.00;99.90
52513;DHT22;38422;53.172;6.974;2024-01-27T06:16:21;3.00;99.90
52513;DHT22;38422;53.172;6.974;2024-01-27T06:18:48;3.00;99.90
52513;DHT22;38422;53.172;6.974;2024-01-27T06:21:14;3.00;99.90
52513;DHT22;38422;53.172;6.974;2024-01-27T06:23:40;3.00;99.90
52513;DHT22;38422;53.172;6.974;2024-01-27T06:26:09;3.00;99.90
52513;DHT22;38422;53.172;6.974;2024-01-27T06:28:35;3.00;99.90
52513;DHT22;38422;53.172;6.974;2024-01-27T06:31:02;3.00;99.90
52513;DHT22;38422;53.172;6.974;2024-01-27T06:33:28;2.90;99.90
52513;DHT22;38422;53.172;6.974;2024-01-27T06:35:54;2.90;99.90
52513;DHT22;38422;53.172;6.974;2024-01-27T06:38:19;2.90;99.90
52513;DHT22;38422;53.172;6.974;2024-01-27T06:40:45;2.90;99.90
52513;DHT22;38422;53.172;6.974;2024-01-27T06:43:12;2.90;99.90
52513;DHT22;38422;53.172;6.974;2024-01-27T06:45:38;2.80;99.90
52513;DHT22;38422;53.172;6.974;2024-01-27T06:48:05;2.80;99.90
52513;DHT22;38422;53.172;6.974;2024-01-27T06:50:31;2.80;99.90
52513;DHT22;38422;53.172;6.974;2024-01-27T06:52:57;2.80;99.90
52513;DHT22;38422;53.172;6.974;2024-01-27T06:55:25;2.80;99.90
52513;DHT22;38422;53.172;6.974;2024-01-27T06:57:51;2.70;99.90
52513;DHT22;38422;53.172;6.974;2024-01-27T07:00:17;2.80;99.90
52513;DHT22;38422;53.172;6.974;2024-01-27T07:02:43;2.70;99.90
52513;DHT22;38422;53.172;6.974;2024-01-27T07:05:09;2.70;99.90
52513;DHT22;38422;53.172;6.974;2024-01-27T07:07:35;2.70;99.90
52513;DHT22;38422;53.172;6.974;2024-01-27T07:10:01;2.70;99.90
52513;DHT22;38422;53.172;6.974;2024-01-27T07:12:27;2.60;99.90
52513;DHT22;38422;53.172;6.974;2024-01-27T07:14:53;2.60;99.90
52513;DHT22;38422;53.172;6.974;2024-01-27T07:17:22;2.60;99.90
52513;DHT22;38422;53.172;6.974;2024-01-27T07:19:47;2.50;99.90
52513;DHT22;38422;53.172;6.974;2024-01-27T07:22:13;2.50;99.90
52513;DHT22;38422;53.172;6.974;2024-01-27T07:24:39;2.50;99.90
52513;DHT22;38422;53.172;6.974;2024-01-27T07:27:04;2.50;99.90
52513;DHT22;38422;53.172;6.974;2024-01-27T07:29:30;2.50;99.90
52513;DHT22;38422;53.172;6.974;2024-01-27T07:31:56;2.50;99.90
52513;DHT22;38422;53.172;6.974;2024-01-27T07:34:22;2.50;99.90
52513;DHT22;38422;53.172;6.974;2024-01-27T07:36:48;2.50;99.90
52513;DHT22;38422;53.172;6.974;2024-01-27T07:39:15;2.50;99.90
52513;DHT22;38422;53.172;6.974;2024-01-27T07:41:41;2.50;99.90
52513;DHT22;38422;53.172;6.974;2024-01-27T07:44:13;2.50;99.90
52513;DHT22;38422;53.172;6.974;2024-01-27T07:46:39;2.50;99.90
52513;DHT22;38422;53.172;6.974;2024-01-27T07:49:09;2.50;99.90
52513;DHT22;38422;53.172;6.974;2024-01-27T07:51:38;2.50;99.90
52513;DHT22;38422;53.172;6.974;2024-01-27T07:54:04;2.50;99.90
52513;DHT22;38422;53.172;6.974;2024-01-27T07:56:30;2.50;99.90
52513;DHT22;38422;53.172;6.974;2024-01-27T07:58:56;2.60;99.90
52513;DHT22;38422;53.172;6.974;2024-01-27T08:01:21;2.50;99.90
52513;DHT22;38422;53.172;6.974;2024-01-27T08:03:47;2.60;99.90
52513;DHT22;38422;53.172;6.974;2024-01-27T08:06:19;2.60;99.90
52513;DHT22;38422;53.172;6.974;2024-01-27T08:08:46;2.60;99.90
52513;DHT22;38422;53.172;6.974;2024-01-27T08:11:12;2.70;99.90
52513;DHT22;38422;53.172;6.974;2024-01-27T08:13:38;2.70;99.90
52513;DHT22;38422;53.172;6.974;2024-01-27T08:16:04;2.70;99.90
52513;DHT22;38422;53.172;6.974;2024-01-27T08:18:31;2.70;99.90
52513;DHT22;38422;53.172;6.974;2024-01-27T08:20:57;2.80;99.90
52513;DHT22;38422;53.172;6.974;2024-01-27T08:23:23;2.80;99.90
52513;DHT22;38422;53.172;6.974;2024-01-27T08:25:49;2.80;99.90
52513;DHT22;38422;53.172;6.974;2024-01-27T08:28:18;2.90;99.90
52513;DHT22;38422;53.172;6.974;2024-01-27T08:30:44;2.90;99.90
52513;DHT22;38422;53.172;6.974;2024-01-27T08:33:09;2.90;99.90
52513;DHT22;38422;53.172;6.974;2024-01-27T08:35:35;2.90;99.90
52513;DHT22;38422;53.172;6.974;2024-01-27T08:38:01;2.90;99.90
52513;DHT22;38422;53.172;6.974;2024-01-27T08:40:29;2.90;99.90
52513;DHT22;38422;53.172;6.974;2024-01-27T08:42:55;3.00;99.90
52513;DHT22;38422;53.172;6.974;2024-01-27T08:45:20;3.00;99.90
52513;DHT22;38422;53.172;6.974;2024-01-27T08:47:46;3.10;99.90
52513;DHT22;38422;53.172;6.974;2024-01-27T08:50:12;3.10;99.90
52513;DHT22;38422;53.172;6.974;2024-01-27T08:52:38;3.10;99.90
52513;DHT22;38422;53.172;6.974;2024-01-27T08:55:04;3.20;99.90
52513;DHT22;38422;53.172;6.974;2024-01-27T08:57:29;3.20;99.90
52513;DHT22;38422;53.172;6.974;2024-01-27T08:59:55;3.20;99.90
52513;DHT22;38422;53.172;6.974;2024-01-27T09:02:21;3.30;99.90
52513;DHT22;38422;53.172;6.974;2024-01-27T09:04:46;3.30;99.90
52513;DHT22;38422;53.172;6.974;2024-01-27T09:07:12;3.40;99.90
52513;DHT22;38422;53.172;6.974;2024-01-27T09:09:38;3.40;99.90
52513;DHT22;38422;53.172;6.974;2024-01-27T09:12:04;3.50;99.90
52513;DHT22;38422;53.172;6.974;2024-01-27T09:14:30;3.50;99.90
52513;DHT22;38422;53.172;6.974;2024-01-27T09:16:56;3.60;99.90
52513;DHT22;38422;53.172;6.974;2024-01-27T09:19:22;3.60;99.90
52513;DHT22;38422;53.172;6.974;2024-01-27T09:21:48;3.70;99.90
52513;DHT22;38422;53.172;6.974;2024-01-27T09:24:14;3.80;99.90
52513;DHT22;38422;53.172;6.974;2024-01-27T09:26:40;3.80;99.90
52513;DHT22;38422;53.172;6.974;2024-01-27T09:29:06;3.90;99.90
52513;DHT22;38422;53.172;6.974;2024-01-27T09:31:32;3.90;99.90
52513;DHT22;38422;53.172;6.974;2024-01-27T09:33:58;3.90;99.90
52513;DHT22;38422;53.172;6.974;2024-01-27T09:36:24;4.00;99.90
52513;DHT22;38422;53.172;6.974;2024-01-27T09:38:51;4.00;99.90
52513;DHT22;38422;53.172;6.974;2024-01-27T09:41:17;4.10;99.90
52513;DHT22;38422;53.172;6.974;2024-01-27T09:43:45;4.10;99.90
52513;DHT22;38422;53.172;6.974;2024-01-27T09:46:11;4.20;99.90
52513;DHT22;38422;53.172;6.974;2024-01-27T09:48:37;4.20;99.90
52513;DHT22;38422;53.172;6.974;2024-01-27T09:51:04;4.30;99.90
52513;DHT22;38422;53.172;6.974;2024-01-27T09:53:30;4.30;99.90
52513;DHT22;38422;53.172;6.974;2024-01-27T09:56:01;4.30;99.90
52513;DHT22;38422;53.172;6.974;2024-01-27T09:58:30;4.40;99.90
52513;DHT22;38422;53.172;6.974;2024-01-27T10:01:00;4.40;99.90
52513;DHT22;38422;53.172;6.974;2024-01-27T10:03:27;4.40;99.90
52513;DHT22;38422;53.172;6.974;2024-01-27T10:05:55;4.50;99.90
52513;DHT22;38422;53.172;6.974;2024-01-27T10:08:21;4.50;99.90
52513;DHT22;38422;53.172;6.974;2024-01-27T10:10:53;4.60;99.90
52513;DHT22;38422;53.172;6.974;2024-01-27T10:13:19;4.60;99.90
52513;DHT22;38422;53.172;6.974;2024-01-27T10:16:05;4.70;99.90
52513;DHT22;38422;53.172;6.974;2024-01-27T10:18:32;4.80;99.90
52513;DHT22;38422;53.172;6.974;2024-01-27T10:20:58;4.90;99.90
52513;DHT22;38422;53.172;6.974;2024-01-27T10:23:24;5.00;99.90
52513;DHT22;38422;53.172;6.974;2024-01-27T10:25:51;5.10;99.90
52513;DHT22;38422;53.172;6.974;2024-01-27T10:28:17;5.20;99.90
52513;DHT22;38422;53.172;6.974;2024-01-27T10:30:43;5.30;99.90
52513;DHT22;38422;53.172;6.974;2024-01-27T10:33:10;5.40;99.90
52513;DHT22;38422;53.172;6.974;2024-01-27T10:35:37;5.60;99.90
52513;DHT22;38422;53.172;6.974;2024-01-27T10:38:02;5.70;99.90
52513;DHT22;38422;53.172;6.974;2024-01-27T10:40:28;5.80;99.90
52513;DHT22;38422;53.172;6.974;2024-01-27T10:43:02;5.90;99.90
52513;DHT22;38422;53.172;6.974;2024-01-27T10:45:35;6.10;99.90
52513;DHT22;38422;53.172;6.974;2024-01-27T10:48:03;6.20;99.90
52513;DHT22;38422;53.172;6.974;2024-01-27T10:50:29;6.30;99.90
52513;DHT22;38422;53.172;6.974;2024-01-27T10:52:57;6.40;99.90
52513;DHT22;38422;53.172;6.974;2024-01-27T10:55:24;6.50;99.90
52513;DHT22;38422;53.172;6.974;2024-01-27T10:57:52;6.60;99.90
52513;DHT22;38422;53.172;6.974;2024-01-27T11:00:19;6.70;99.90
52513;DHT22;38422;53.172;6.974;2024-01-27T11:02:45;6.70;99.90
52513;DHT22;38422;53.172;6.974;2024-01-27T11:05:14;6.80;99.90
52513;DHT22;38422;53.172;6.974;2024-01-27T11:07:41;6.80;99.90
52513;DHT22;38422;53.172;6.974;2024-01-27T11:10:07;6.90;99.90
52513;DHT22;38422;53.172;6.974;2024-01-27T11:12:34;7.00;99.90
52513;DHT22;38422;53.172;6.974;2024-01-27T11:15:00;7.10;99.90
52513;DHT22;38422;53.172;6.974;2024-01-27T11:17:25;7.20;99.90
52513;DHT22;38422;53.172;6.974;2024-01-27T11:19:52;7.30;99.90
52513;DHT22;38422;53.172;6.974;2024-01-27T11:22:26;7.40;99.90
52513;DHT22;38422;53.172;6.974;2024-01-27T11:25:14;7.50;99.90
52513;DHT22;38422;53.172;6.974;2024-01-27T11:27:40;7.60;99.90
52513;DHT22;38422;53.172;6.974;2024-01-27T11:32:49;7.70;99.90
52513;DHT22;38422;53.172;6.974;2024-01-27T11:35:17;7.80;99.90
52513;DHT22;38422;53.172;6.974;2024-01-27T11:37:43;7.80;99.90
52513;DHT22;38422;53.172;6.974;2024-01-27T11:40:09;7.90;99.90
52513;DHT22;38422;53.172;6.974;2024-01-27T11:42:35;8.10;99.90
52513;DHT22;38422;53.172;6.974;2024-01-27T11:45:01;8.20;99.90
52513;DHT22;38422;53.172;6.974;2024-01-27T11:47:27;8.30;99.90
52513;DHT22;38422;53.172;6.974;2024-01-27T11:49:54;8.30;99.90
52513;DHT22;38422;53.172;6.974;2024-01-27T11:52:22;8.40;99.90
52513;DHT22;38422;53.172;6.974;2024-01-27T11:54:55;8.50;99.90
52513;DHT22;38422;53.172;6.974;2024-01-27T11:57:21;8.60;99.90
52513;DHT22;38422;53.172;6.974;2024-01-27T11:59:47;8.70;99.90
52513;DHT22;38422;53.172;6.974;2024-01-27T12:02:13;8.90;99.90
52513;DHT22;38422;53.172;6.974;2024-01-27T12:04:39;8.90;99.90
52513;DHT22;38422;53.172;6.974;2024-01-27T12:07:05;9.00;99.90
52513;DHT22;38422;53.172;6.974;2024-01-27T12:09:31;9.00;99.90
52513;DHT22;38422;53.172;6.974;2024-01-27T12:11:57;9.20;99.90
52513;DHT22;38422;53.172;6.974;2024-01-27T12:14:23;9.10;99.90
52513;DHT22;38422;53.172;6.974;2024-01-27T12:16:48;9.00;99.90
52513;DHT22;38422;53.172;6.974;2024-01-27T12:19:14;8.90;99.90
52513;DHT22;38422;53.172;6.974;2024-01-27T12:21:47;8.90;99.90
52513;DHT22;38422;53.172;6.974;2024-01-27T12:24:16;9.00;99.90
52513;DHT22;38422;53.172;6.974;2024-01-27T12:26:45;9.10;99.90
52513;DHT22;38422;53.172;6.974;2024-01-27T12:29:14;9.10;99.90
52513;DHT22;38422;53.172;6.974;2024-01-27T12:31:39;9.20;99.90
52513;DHT22;38422;53.172;6.974;2024-01-27T12:34:07;9.20;99.90
52513;DHT22;38422;53.172;6.974;2024-01-27T12:36:33;9.20;99.90
52513;DHT22;38422;53.172;6.974;2024-01-27T12:39:00;9.30;99.90
52513;DHT22;38422;53.172;6.974;2024-01-27T12:41:26;9.50;99.90
52513;DHT22;38422;53.172;6.974;2024-01-27T12:43:53;9.60;99.90
52513;DHT22;38422;53.172;6.974;2024-01-27T12:46:19;9.70;99.90
52513;DHT22;38422;53.172;6.974;2024-01-27T12:48:48;9.80;99.90
52513;DHT22;38422;53.172;6.974;2024-01-27T12:51:13;9.90;99.90
52513;DHT22;38422;53.172;6.974;2024-01-27T12:53:41;9.90;99.90
52513;DHT22;38422;53.172;6.974;2024-01-27T12:56:12;10.00;99.90
52513;DHT22;38422;53.172;6.974;2024-01-27T12:58:38;9.90;99.90
52513;DHT22;38422;53.172;6.974;2024-01-27T13:01:06;9.90;99.90
52513;DHT22;38422;53.172;6.974;2024-01-27T13:03:33;9.90;99.90
52513;DHT22;38422;53.172;6.974;2024-01-27T13:05:59;10.00;99.90
52513;DHT22;38422;53.172;6.974;2024-01-27T13:08:25;10.00;99.90
52513;DHT22;38422;53.172;6.974;2024-01-27T13:10:50;10.00;99.90
52513;DHT22;38422;53.172;6.974;2024-01-27T13:13:16;10.00;99.90
52513;DHT22;38422;53.172;6.974;2024-01-27T13:15:42;10.00;99.90
52513;DHT22;38422;53.172;6.974;2024-01-27T13:18:09;10.20;99.90
52513;DHT22;38422;53.172;6.974;2024-01-27T13:20:36;10.30;99.90
52513;DHT22;38422;53.172;6.974;2024-01-27T13:23:02;10.30;99.90
52513;DHT22;38422;53.172;6.974;2024-01-27T13:25:28;10.30;99.90
52513;DHT22;38422;53.172;6.974;2024-01-27T13:27:53;10.30;99.90
52513;DHT22;38422;53.172;6.974;2024-01-27T13:30:19;10.40;99.90
52513;DHT22;38422;53.172;6.974;2024-01-27T13:32:45;10.40;99.90
52513;DHT22;38422;53.172;6.974;2024-01-27T13:35:11;10.40;99.90
52513;DHT22;38422;53.172;6.974;2024-01-27T13:37:37;10.50;99.90
52513;DHT22;38422;53.172;6.974;2024-01-27T13:40:03;10.40;99.90
52513;DHT22;38422;53.172;6.974;2024-01-27T13:42:30;10.40;99.90
52513;DHT22;38422;53.172;6.974;2024-01-27T13:44:56;10.20;99.90
52513;DHT22;38422;53.172;6.974;2024-01-27T13:47:22;10.20;99.90
52513;DHT22;38422;53.172;6.974;2024-01-27T13:49:48;10.20;99.90
52513;DHT22;38422;53.172;6.974;2024-01-27T13:52:14;10.20;99.90
52513;DHT22;38422;53.172;6.974;2024-01-27T13:54:39;10.20;99.90
52513;DHT22;38422;53.172;6.974;2024-01-27T13:57:06;10.30;99.90
52513;DHT22;38422;53.172;6.974;2024-01-27T13:59:31;10.30;99.90
52513;DHT22;38422;53.172;6.974;2024-01-27T14:01:58;10.40;99.90
52513;DHT22;38422;53.172;6.974;2024-01-27T14:04:24;10.30;99.90
52513;DHT22;38422;53.172;6.974;2024-01-27T14:06:51;10.40;99.90
52513;DHT22;38422;53.172;6.974;2024-01-27T14:09:19;10.40;99.90
52513;DHT22;38422;53.172;6.974;2024-01-27T14:11:45;10.40;99.90
52513;DHT22;38422;53.172;6.974;2024-01-27T14:14:11;10.40;99.90
52513;DHT22;38422;53.172;6.974;2024-01-27T14:16:36;10.40;99.90
52513;DHT22;38422;53.172;6.974;2024-01-27T14:19:02;10.40;99.90
52513;DHT22;38422;53.172;6.974;2024-01-27T14:21:28;10.50;99.90
52513;DHT22;38422;53.172;6.974;2024-01-27T14:23:54;10.50;99.90
52513;DHT22;38422;53.172;6.974;2024-01-27T14:26:29;10.50;99.90
52513;DHT22;38422;53.172;6.974;2024-01-27T14:28:55;10.40;99.90
52513;DHT22;38422;53.172;6.974;2024-01-27T14:31:21;10.40;99.90
52513;DHT22;38422;53.172;6.974;2024-01-27T14:33:47;10.40;99.90
52513;DHT22;38422;53.172;6.974;2024-01-27T14:36:13;10.20;99.90
52513;DHT22;38422;53.172;6.974;2024-01-27T14:38:39;10.10;99.90
52513;DHT22;38422;53.172;6.974;2024-01-27T14:41:09;10.00;99.90
52513;DHT22;38422;53.172;6.974;2024-01-27T14:43:38;9.80;99.90
52513;DHT22;38422;53.172;6.974;2024-01-27T14:46:04;9.60;99.90
52513;DHT22;38422;53.172;6.974;2024-01-27T14:48:30;9.50;99.90
52513;DHT22;38422;53.172;6.974;2024-01-27T14:50:56;9.50;99.90
52513;DHT22;38422;53.172;6.974;2024-01-27T14:53:28;9.40;99.90
52513;DHT22;38422;53.172;6.974;2024-01-27T14:55:55;9.30;99.90
52513;DHT22;38422;53.172;6.974;2024-01-27T14:58:23;9.30;99.90
52513;DHT22;38422;53.172;6.974;2024-01-27T15:00:49;9.30;99.90
52513;DHT22;38422;53.172;6.974;2024-01-27T15:03:22;9.30;99.90
52513;DHT22;38422;53.172;6.974;2024-01-27T15:05:49;9.20;99.90
52513;DHT22;38422;53.172;6.974;2024-01-27T15:08:19;9.10;99.90
52513;DHT22;38422;53.172;6.974;2024-01-27T15:10:45;9.00;99.90
52513;DHT22;38422;53.172;6.974;2024-01-27T15:13:13;9.00;99.90
52513;DHT22;38422;53.172;6.974;2024-01-27T15:15:39;8.90;99.90
52513;DHT22;38422;53.172;6.974;2024-01-27T15:18:06;8.80;99.90
52513;DHT22;38422;53.172;6.974;2024-01-27T15:20:33;8.70;99.90
52513;DHT22;38422;53.172;6.974;2024-01-27T15:22:58;8.70;99.90
52513;DHT22;38422;53.172;6.974;2024-01-27T15:25:24;8.60;99.90
52513;DHT22;38422;53.172;6.974;2024-01-27T15:27:50;8.60;99.90
52513;DHT22;38422;53.172;6.974;2024-01-27T15:30:17;8.50;99.90
52513;DHT22;38422;53.172;6.974;2024-01-27T15:32:46;8.40;99.90
52513;DHT22;38422;53.172;6.974;2024-01-27T15:35:11;8.40;99.90
52513;DHT22;38422;53.172;6.974;2024-01-27T15:37:37;8.30;99.90
52513;DHT22;38422;53.172;6.974;2024-01-27T15:40:05;8.20;99.90
52513;DHT22;38422;53.172;6.974;2024-01-27T15:42:31;8.20;99.90